createdAt,value
2018-03-06T00:00:47.811Z,89.11
2018-03-06T00:03:15.733Z,88.92
2018-03-06T00:05:43.234Z,88.93
2018-03-06T00:08:10.875Z,89.04
2018-03-06T00:10:38.371Z,89.02
2018-03-06T00:13:05.904Z,89.24
2018-03-06T00:15:33.430Z,89.14
2018-03-06T00:18:00.956Z,88.78
2018-03-06T00:20:28.637Z,88.84
2018-03-06T00:22:56.150Z,88.71
2018-03-06T00:25:23.656Z,88.58
2018-03-06T00:27:51.403Z,88.24
2018-03-06T00:30:18.914Z,88.29
2018-03-06T00:32:46.399Z,88.32
2018-03-06T00:35:13.919Z,88.26
2018-03-06T00:37:41.462Z,88.20
2018-03-06T00:40:08.961Z,87.89
2018-03-06T00:42:36.518Z,87.31
2018-03-06T00:45:04.049Z,86.72
2018-03-06T00:47:31.627Z,86.52
2018-03-06T00:49:59.169Z,86.28
2018-03-06T00:52:26.763Z,85.84
2018-03-06T00:54:54.267Z,85.76
2018-03-06T00:57:21.766Z,85.63
2018-03-06T00:59:49.262Z,85.25
2018-03-06T01:02:16.911Z,85.09
2018-03-06T01:04:44.429Z,85.34
2018-03-06T01:07:11.934Z,85.07
2018-03-06T01:09:39.487Z,84.60
2018-03-06T01:12:06.994Z,84.86
2018-03-06T01:14:34.791Z,85.12
2018-03-06T01:17:02.321Z,85.16
2018-03-06T01:19:29.830Z,84.80
2018-03-06T01:21:57.353Z,84.70
2018-03-06T01:24:25.194Z,84.51
2018-03-06T01:26:52.714Z,84.31
2018-03-06T01:29:20.212Z,84.44
2018-03-06T01:31:48.348Z,84.60
2018-03-06T01:34:15.915Z,84.38
2018-03-06T01:36:43.418Z,84.40
2018-03-06T01:39:10.959Z,84.53
2018-03-06T01:41:38.539Z,84.62
2018-03-06T01:44:06.070Z,84.60
2018-03-06T01:46:33.570Z,84.50
2018-03-06T01:49:01.062Z,84.57
2018-03-06T01:51:28.596Z,84.89
2018-03-06T01:53:56.117Z,85.09
2018-03-06T01:56:23.624Z,85.42
2018-03-06T01:58:51.135Z,85.59
2018-03-06T02:01:18.625Z,85.56
2018-03-06T02:03:46.784Z,84.87
2018-03-06T02:06:14.290Z,85.12
2018-03-06T02:08:41.842Z,85.38
2018-03-06T02:11:10.355Z,85.29
2018-03-06T02:13:37.872Z,85.39
2018-03-06T02:16:05.376Z,85.32
2018-03-06T02:18:33.003Z,85.13
2018-03-06T02:21:01.742Z,84.89
2018-03-06T02:23:29.247Z,84.67
2018-03-06T02:25:56.947Z,84.70
2018-03-06T02:28:24.438Z,84.68
2018-03-06T02:30:52.079Z,84.47
2018-03-06T02:33:19.571Z,84.23
2018-03-06T02:35:47.080Z,84.37
2018-03-06T02:38:14.779Z,84.85
2018-03-06T02:40:42.339Z,84.39
2018-03-06T02:43:09.848Z,84.64
2018-03-06T02:45:37.347Z,84.51
2018-03-06T02:48:08.295Z,85.04
2018-03-06T02:50:35.814Z,85.11
2018-03-06T02:53:03.303Z,85.45
2018-03-06T02:55:30.811Z,85.55
2018-03-06T02:57:58.595Z,85.83
2018-03-06T03:00:26.283Z,85.99
2018-03-06T03:02:53.866Z,85.96
2018-03-06T03:05:21.383Z,85.92
2018-03-06T03:07:48.863Z,85.94
2018-03-06T03:10:16.389Z,85.66
2018-03-06T03:12:44.046Z,85.67
2018-03-06T03:15:11.652Z,85.04
2018-03-06T03:17:39.147Z,85.03
2018-03-06T03:20:06.636Z,85.04
2018-03-06T03:22:34.141Z,85.39
2018-03-06T03:25:01.655Z,85.53
2018-03-06T03:27:29.150Z,85.98
2018-03-06T03:29:56.655Z,86.31
2018-03-06T03:32:24.163Z,86.14
2018-03-06T03:34:51.679Z,86.42
2018-03-06T03:37:19.175Z,86.65
2018-03-06T03:39:46.716Z,86.57
2018-03-06T03:42:14.234Z,86.53
2018-03-06T03:44:41.715Z,86.34
2018-03-06T03:47:09.218Z,86.45
2018-03-06T03:49:36.752Z,86.65
2018-03-06T03:52:04.252Z,86.78
2018-03-06T03:54:31.846Z,86.80
2018-03-06T03:56:59.352Z,86.80
2018-03-06T03:59:26.860Z,86.79
2018-03-06T04:01:54.372Z,86.54
2018-03-06T04:04:21.884Z,86.70
2018-03-06T04:06:49.471Z,86.98
2018-03-06T04:09:17.001Z,87.01
2018-03-06T04:11:45.552Z,87.01
2018-03-06T04:14:13.043Z,87.04
2018-03-06T04:16:40.531Z,87.16
2018-03-06T04:19:08.020Z,87.31
2018-03-06T04:21:35.506Z,87.14
2018-03-06T04:24:02.996Z,87.22
2018-03-06T04:26:30.826Z,87.32
2018-03-06T04:28:58.308Z,87.18
2018-03-06T04:31:25.803Z,87.29
2018-03-06T04:33:53.296Z,87.17
2018-03-06T04:36:20.866Z,87.23
2018-03-06T04:38:48.358Z,87.50
2018-03-06T04:41:15.846Z,87.26
2018-03-06T04:43:43.312Z,86.69
2018-03-06T04:46:10.863Z,86.19
2018-03-06T04:48:38.351Z,85.47
2018-03-06T04:51:05.832Z,85.30
2018-03-06T04:53:33.340Z,85.32
2018-03-06T04:56:00.807Z,85.01
2018-03-06T04:58:28.374Z,85.26
2018-03-06T05:00:55.890Z,85.48
2018-03-06T05:03:23.366Z,85.45
2018-03-06T05:05:50.842Z,85.68
2018-03-06T05:08:18.427Z,86.00
2018-03-06T05:10:45.901Z,86.27
2018-03-06T05:13:13.375Z,86.41
2018-03-06T05:15:40.853Z,86.42
2018-03-06T05:18:08.394Z,86.44
2018-03-06T05:20:35.873Z,86.43
2018-03-06T05:23:03.347Z,86.01
2018-03-06T05:25:30.840Z,86.12
2018-03-06T05:27:58.319Z,86.27
2018-03-06T05:30:25.959Z,86.23
2018-03-06T05:32:53.434Z,86.29
2018-03-06T05:35:20.911Z,86.45
2018-03-06T05:37:48.763Z,86.31
2018-03-06T05:40:16.313Z,86.47
2018-03-06T05:42:44.060Z,86.11
2018-03-06T05:45:11.580Z,85.79
2018-03-06T05:47:39.071Z,85.87
2018-03-06T05:50:07.441Z,86.30
2018-03-06T05:52:34.997Z,86.16
2018-03-06T05:55:02.498Z,86.14
2018-03-06T05:57:29.971Z,86.15
2018-03-06T05:59:57.462Z,85.81
2018-03-06T06:02:24.944Z,85.39
2018-03-06T06:04:52.467Z,85.51
2018-03-06T06:07:19.950Z,85.70
2018-03-06T06:09:47.448Z,85.87
2018-03-06T06:12:14.931Z,86.21
2018-03-06T06:14:42.473Z,85.98
2018-03-06T06:17:09.927Z,86.23
2018-03-06T06:19:37.410Z,86.22
2018-03-06T06:22:05.004Z,86.57
2018-03-06T06:24:32.504Z,85.98
2018-03-06T06:27:00.019Z,86.18
2018-03-06T06:29:28.247Z,86.72
2018-03-06T06:31:55.751Z,87.03
2018-03-06T06:34:23.210Z,87.30
2018-03-06T06:36:50.697Z,87.21
2018-03-06T06:39:18.199Z,87.44
2018-03-06T06:41:45.666Z,87.76
2018-03-06T06:44:13.151Z,87.65
2018-03-06T06:46:40.690Z,87.91
2018-03-06T06:49:08.170Z,88.17
2018-03-06T06:51:35.645Z,87.85
2018-03-06T06:54:03.157Z,87.73
2018-03-06T06:56:30.642Z,87.92
2018-03-06T06:58:58.117Z,88.13
2018-03-06T07:01:25.594Z,88.22
2018-03-06T07:03:53.063Z,88.32
2018-03-06T07:06:20.531Z,87.92
2018-03-06T07:08:48.008Z,87.43
2018-03-06T07:11:15.468Z,87.64
2018-03-06T07:13:43.567Z,87.60
2018-03-06T07:16:11.048Z,87.64
2018-03-06T07:18:38.498Z,87.19
2018-03-06T07:21:06.091Z,87.03
2018-03-06T07:23:33.576Z,86.95
2018-03-06T07:26:01.032Z,86.92
2018-03-06T07:28:28.578Z,86.51
2018-03-06T07:30:56.074Z,86.96
2018-03-06T07:33:23.538Z,86.46
2018-03-06T07:35:51.046Z,86.44
2018-03-06T07:38:18.889Z,86.21
2018-03-06T07:40:46.360Z,86.10
2018-03-06T07:43:13.850Z,86.21
2018-03-06T07:45:41.660Z,86.01
2018-03-06T07:48:09.119Z,85.82
2018-03-06T07:50:36.579Z,85.72
2018-03-06T07:53:04.030Z,85.13
2018-03-06T07:55:31.532Z,84.84
2018-03-06T07:57:59.032Z,84.58
2018-03-06T08:00:26.582Z,84.50
2018-03-06T08:02:54.044Z,84.64
2018-03-06T08:05:21.524Z,84.14
2018-03-06T08:07:48.976Z,84.61
2018-03-06T08:10:17.190Z,84.78
2018-03-06T08:12:44.966Z,84.75
2018-03-06T08:15:12.496Z,84.61
2018-03-06T08:17:41.367Z,84.90
2018-03-06T08:20:08.858Z,84.79
2018-03-06T08:22:36.315Z,84.23
2018-03-06T08:25:03.770Z,84.28
2018-03-06T08:27:31.222Z,83.91
2018-03-06T08:29:58.701Z,83.98
2018-03-06T08:32:26.170Z,83.65
2018-03-06T08:34:53.611Z,82.84
2018-03-06T08:37:21.079Z,82.43
2018-03-06T08:39:48.560Z,81.96
2018-03-06T08:42:16.679Z,81.38
2018-03-06T08:44:44.394Z,80.90
2018-03-06T08:47:11.867Z,81.05
2018-03-06T08:49:39.328Z,81.11
2018-03-06T08:52:06.802Z,81.31
2018-03-06T08:54:34.276Z,81.91
2018-03-06T08:57:01.735Z,81.60
2018-03-06T08:59:29.228Z,81.80
2018-03-06T09:01:56.679Z,81.59
2018-03-06T09:04:24.133Z,81.03
2018-03-06T09:06:51.615Z,80.89
2018-03-06T09:09:19.092Z,80.11
2018-03-06T09:11:46.608Z,80.12
2018-03-06T09:14:14.120Z,80.28
2018-03-06T09:16:41.577Z,80.20
2018-03-06T09:19:09.019Z,80.41
2018-03-06T09:21:36.535Z,80.17
2018-03-06T09:24:04.000Z,80.69
2018-03-06T09:26:31.457Z,80.36
2018-03-06T09:28:58.929Z,79.66
2018-03-06T09:31:26.410Z,79.95
2018-03-06T09:33:53.882Z,78.38
2018-03-06T09:36:21.366Z,77.23
2018-03-06T09:38:48.829Z,76.27
2018-03-06T09:41:16.297Z,75.68
2018-03-06T09:43:43.759Z,75.27
2018-03-06T09:46:11.220Z,74.63
2018-03-06T09:48:38.795Z,74.30
2018-03-06T09:51:06.259Z,73.35
2018-03-06T09:53:34.327Z,73.04
2018-03-06T09:56:01.802Z,73.70
2018-03-06T09:58:29.277Z,73.55
2018-03-06T10:00:56.721Z,74.04
2018-03-06T10:03:24.175Z,73.28
2018-03-06T10:05:51.635Z,72.95
2018-03-06T10:08:19.099Z,72.35
2018-03-06T10:10:46.583Z,72.43
2018-03-06T10:13:14.056Z,72.05
2018-03-06T10:15:41.501Z,72.85
2018-03-06T10:18:08.961Z,73.03
2018-03-06T10:20:36.422Z,73.41
2018-03-06T10:23:03.863Z,72.48
2018-03-06T10:25:31.340Z,71.47
2018-03-06T10:27:58.859Z,70.32
2018-03-06T10:30:26.412Z,70.33
2018-03-06T10:32:53.870Z,71.01
2018-03-06T10:35:21.324Z,70.62
2018-03-06T10:37:49.532Z,70.63
2018-03-06T10:40:17.012Z,70.05
2018-03-06T10:42:44.458Z,69.38
2018-03-06T10:45:11.959Z,68.67
2018-03-06T10:47:39.410Z,68.62
2018-03-06T10:50:06.910Z,68.26
2018-03-06T10:52:34.391Z,67.60
2018-03-06T10:55:01.842Z,66.99
2018-03-06T10:57:29.320Z,67.00
2018-03-06T10:59:56.793Z,67.21
2018-03-06T11:02:29.897Z,68.59
2018-03-06T11:04:57.389Z,68.78
2018-03-06T11:07:24.864Z,68.79
2018-03-06T11:09:52.335Z,70.04
2018-03-06T11:12:19.791Z,70.94
2018-03-06T11:14:48.755Z,71.92
2018-03-06T11:17:16.214Z,72.92
2018-03-06T11:19:43.708Z,73.14
2018-03-06T11:22:11.167Z,72.12
2018-03-06T11:24:38.821Z,72.87
2018-03-06T11:27:06.283Z,73.14
2018-03-06T11:29:33.776Z,73.88
2018-03-06T11:32:01.248Z,75.22
2018-03-06T11:34:28.703Z,75.98
2018-03-06T11:36:56.188Z,75.96
2018-03-06T11:39:23.643Z,75.97
2018-03-06T11:41:51.091Z,74.86
2018-03-06T11:44:18.608Z,74.34
2018-03-06T11:46:46.073Z,74.15
2018-03-06T11:49:13.532Z,74.51
2018-03-06T11:51:40.996Z,75.07
2018-03-06T11:54:08.471Z,75.65
2018-03-06T11:56:35.943Z,75.84
2018-03-06T11:59:03.406Z,76.21
2018-03-06T12:01:30.859Z,76.33
2018-03-06T12:03:58.342Z,75.45
2018-03-06T12:06:25.940Z,76.12
2018-03-06T12:08:53.676Z,76.36
2018-03-06T12:11:21.181Z,77.34
2018-03-06T12:13:48.663Z,76.84
2018-03-06T12:16:16.174Z,76.71
2018-03-06T12:18:44.356Z,77.02
2018-03-06T12:21:11.865Z,77.04
2018-03-06T12:23:39.335Z,77.03
2018-03-06T12:26:06.823Z,77.66
2018-03-06T12:28:34.280Z,78.05
2018-03-06T12:31:01.780Z,78.52
2018-03-06T12:33:29.323Z,78.93
2018-03-06T12:35:56.783Z,79.16
2018-03-06T12:38:24.287Z,79.35
2018-03-06T12:40:51.812Z,79.60
2018-03-06T12:43:19.256Z,79.50
2018-03-06T12:45:46.713Z,79.64
2018-03-06T12:48:14.162Z,79.04
2018-03-06T12:50:41.634Z,78.86
2018-03-06T12:53:09.110Z,78.79
2018-03-06T12:55:36.546Z,78.79
2018-03-06T12:58:04.035Z,79.00
2018-03-06T13:00:31.538Z,78.43
2018-03-06T13:02:58.991Z,78.86
2018-03-06T13:05:26.450Z,78.98
2018-03-06T13:07:53.887Z,78.81
2018-03-06T13:10:21.344Z,78.42
2018-03-06T13:12:48.799Z,78.38
2018-03-06T13:15:16.401Z,78.02
2018-03-06T13:17:43.872Z,78.05
2018-03-06T13:20:11.347Z,77.93
2018-03-06T13:22:38.811Z,78.03
2018-03-06T13:25:06.425Z,77.61
2018-03-06T13:27:33.875Z,77.79
2018-03-06T13:30:01.344Z,77.71
2018-03-06T13:32:28.815Z,77.12
2018-03-06T13:34:56.281Z,76.93
2018-03-06T13:37:23.761Z,76.59
2018-03-06T13:39:51.752Z,76.70
2018-03-06T13:42:19.215Z,76.84
2018-03-06T13:44:46.707Z,76.90
2018-03-06T13:47:14.152Z,77.17
2018-03-06T13:49:41.625Z,76.78
2018-03-06T13:52:09.091Z,77.17
2018-03-06T13:54:36.603Z,77.36
2018-03-06T13:57:04.057Z,77.32
2018-03-06T13:59:31.520Z,76.91
2018-03-06T14:01:59.004Z,76.50
2018-03-06T14:04:26.469Z,76.75
2018-03-06T14:06:53.920Z,76.58
2018-03-06T14:09:21.438Z,76.54
2018-03-06T14:11:49.090Z,76.65
2018-03-06T14:14:16.542Z,76.21
2018-03-06T14:16:44.001Z,76.12
2018-03-06T14:19:11.452Z,76.25
2018-03-06T14:21:38.946Z,76.12
2018-03-06T14:24:06.427Z,76.23
2018-03-06T14:26:33.940Z,76.17
2018-03-06T14:29:01.421Z,75.90
2018-03-06T14:31:28.879Z,75.87
2018-03-06T14:33:56.347Z,76.06
2018-03-06T14:36:23.930Z,75.96
2018-03-06T14:38:51.419Z,76.20
2018-03-06T14:41:18.884Z,75.98
2018-03-06T14:43:46.348Z,76.21
2018-03-06T14:46:13.956Z,76.54
2018-03-06T14:48:41.781Z,76.63
2018-03-06T14:51:09.283Z,76.65
2018-03-06T14:53:36.720Z,77.04
2018-03-06T14:56:04.176Z,76.88
2018-03-06T14:58:31.627Z,77.01
2018-03-06T15:00:59.120Z,77.20
2018-03-06T15:03:26.590Z,76.94
2018-03-06T15:05:54.036Z,77.05
2018-03-06T15:08:21.515Z,76.71
2018-03-06T15:10:49.020Z,76.22
2018-03-06T15:13:16.540Z,75.94
2018-03-06T15:15:44.032Z,76.02
2018-03-06T15:18:11.490Z,76.13
2018-03-06T15:20:38.947Z,75.91
2018-03-06T15:23:06.399Z,75.73
2018-03-06T15:25:33.869Z,75.92
2018-03-06T15:28:01.383Z,75.49
2018-03-06T15:30:28.880Z,75.66
2018-03-06T15:32:56.551Z,75.25
2018-03-06T15:35:23.998Z,75.33
2018-03-06T15:37:51.474Z,76.02
2018-03-06T15:40:18.943Z,76.40
2018-03-06T15:42:46.425Z,76.56
2018-03-06T15:45:13.958Z,76.65
2018-03-06T15:47:41.419Z,76.49
2018-03-06T15:50:08.882Z,76.61
2018-03-06T15:52:36.334Z,76.80
2018-03-06T15:55:03.823Z,76.92
2018-03-06T15:57:31.297Z,76.68
2018-03-06T15:59:58.817Z,76.79
2018-03-06T16:02:26.286Z,76.93
2018-03-06T16:04:53.744Z,77.38
2018-03-06T16:07:21.231Z,77.42
2018-03-06T16:09:48.733Z,76.87
2018-03-06T16:12:16.193Z,77.05
2018-03-06T16:14:43.666Z,77.28
2018-03-06T16:17:11.142Z,77.27
2018-03-06T16:19:38.654Z,77.47
2018-03-06T16:22:06.115Z,77.95
2018-03-06T16:24:33.642Z,77.64
2018-03-06T16:27:01.139Z,77.39
2018-03-06T16:29:28.617Z,77.79
2018-03-06T16:31:56.117Z,78.33
2018-03-06T16:34:23.606Z,78.63
2018-03-06T16:36:51.060Z,78.63
2018-03-06T16:39:18.543Z,79.11
2018-03-06T16:41:46.055Z,79.48
2018-03-06T16:44:13.526Z,79.78
2018-03-06T16:46:41.091Z,79.96
2018-03-06T16:49:08.554Z,80.44
2018-03-06T16:51:37.012Z,80.61
2018-03-06T16:54:04.480Z,80.73
2018-03-06T16:56:32.202Z,80.96
2018-03-06T16:58:59.740Z,81.25
2018-03-06T17:01:27.195Z,81.58
2018-03-06T17:03:54.663Z,81.65
2018-03-06T17:06:22.145Z,81.79
2018-03-06T17:08:49.644Z,81.89
2018-03-06T17:11:17.309Z,81.92
2018-03-06T17:13:44.797Z,82.12
2018-03-06T17:16:12.263Z,82.20
2018-03-06T17:18:39.725Z,82.14
2018-03-06T17:21:07.276Z,82.27
2018-03-06T17:23:34.812Z,82.73
2018-03-06T17:26:02.326Z,82.94
2018-03-06T17:28:29.863Z,83.09
2018-03-06T17:30:57.372Z,83.07
2018-03-06T17:33:24.854Z,83.01
2018-03-06T17:35:52.371Z,83.16
2018-03-06T17:38:19.857Z,83.20
2018-03-06T17:40:47.340Z,82.79
2018-03-06T17:43:14.861Z,82.88
2018-03-06T17:45:42.361Z,83.04
2018-03-06T17:48:09.819Z,83.25
2018-03-06T17:50:38.450Z,83.23
2018-03-06T17:53:07.192Z,83.40
2018-03-06T17:55:34.685Z,83.10
2018-03-06T17:58:02.158Z,83.24
2018-03-06T18:00:29.617Z,83.26
2018-03-06T18:02:57.821Z,83.50
2018-03-06T18:05:25.398Z,83.39
2018-03-06T18:07:53.514Z,83.53
2018-03-06T18:10:21.024Z,83.72
2018-03-06T18:12:48.565Z,83.77
2018-03-06T18:15:16.311Z,83.81
2018-03-06T18:17:43.778Z,83.75
2018-03-06T18:20:11.240Z,83.81
2018-03-06T18:22:38.840Z,83.96
2018-03-06T18:25:06.310Z,84.02
2018-03-06T18:27:33.962Z,84.00
2018-03-06T18:30:02.237Z,84.05
2018-03-06T18:32:29.723Z,84.11
2018-03-06T18:34:57.224Z,83.89
2018-03-06T18:37:24.808Z,83.74
2018-03-06T18:39:52.309Z,83.45
2018-03-06T18:42:20.606Z,83.50
2018-03-06T18:44:48.064Z,83.73
2018-03-06T18:47:15.539Z,83.87
2018-03-06T18:49:54.807Z,83.97
2018-03-06T18:52:22.260Z,84.04
2018-03-06T18:54:49.703Z,84.50
2018-03-06T18:57:17.671Z,84.99
2018-03-06T18:59:45.146Z,85.29
2018-03-06T19:02:24.485Z,85.67
2018-03-06T19:05:03.663Z,86.31
2018-03-06T19:07:31.159Z,86.32
2018-03-06T19:09:58.616Z,86.48
2018-03-06T19:12:26.382Z,86.81
2018-03-06T19:14:53.937Z,87.32
2018-03-06T19:17:21.395Z,87.77
2018-03-06T19:19:48.946Z,88.12
2018-03-06T19:22:16.487Z,88.61
2018-03-06T19:24:43.947Z,88.92
2018-03-06T19:36:54.177Z,89.32
2018-03-06T19:39:22.021Z,88.68
2018-03-06T19:41:50.349Z,88.46
2018-03-06T19:44:17.972Z,88.41
2018-03-06T19:46:45.452Z,88.33
2018-03-06T19:49:15.727Z,88.35
2018-03-06T19:51:43.442Z,88.36
2018-03-06T19:54:20.367Z,88.29
2018-03-06T19:56:49.105Z,88.31
2018-03-06T19:59:16.717Z,88.74
2018-03-06T20:01:45.780Z,89.10
2018-03-06T20:04:13.445Z,89.19
2018-03-06T20:06:41.416Z,89.62
2018-03-06T20:09:09.401Z,89.72
2018-03-06T20:11:37.708Z,89.70
2018-03-06T20:14:05.391Z,89.80
2018-03-06T20:16:33.176Z,90.17
2018-03-06T20:19:07.232Z,90.48
2018-03-06T20:21:34.844Z,90.69
2018-03-06T20:24:07.867Z,90.71
2018-03-06T20:26:37.704Z,90.78
2018-03-06T20:29:09.466Z,90.97
2018-03-06T20:31:44.006Z,91.17
2018-03-06T20:34:11.875Z,91.38
2018-03-06T20:36:39.528Z,91.51
2018-03-06T20:39:12.806Z,91.33
2018-03-06T20:41:40.467Z,91.28
2018-03-06T20:51:58.032Z,91.46
2018-03-06T20:54:31.096Z,91.67
2018-03-06T20:59:32.654Z,92.16
2018-03-06T21:02:00.276Z,92.46
2018-03-06T21:04:27.877Z,92.62
2018-03-06T21:07:02.813Z,92.79
2018-03-06T21:24:51.563Z,93.19
2018-03-06T21:27:20.404Z,93.30
2018-03-06T21:29:48.034Z,93.39
2018-03-06T21:32:18.029Z,93.57
2018-03-06T21:39:57.363Z,93.42
2018-03-06T21:42:25.108Z,93.26
2018-03-06T21:45:03.072Z,93.18
2018-03-06T21:47:31.623Z,92.95
2018-03-06T21:49:59.773Z,92.56
2018-03-06T21:52:27.511Z,92.20
2018-03-06T21:54:55.971Z,91.90
2018-03-06T21:57:24.157Z,91.40
2018-03-06T21:59:51.640Z,91.20
2018-03-06T22:02:19.131Z,91.01
2018-03-06T22:04:47.000Z,91.01
2018-03-06T22:07:14.938Z,90.85
2018-03-06T22:09:42.538Z,90.83
2018-03-06T22:12:10.046Z,90.76
2018-03-06T22:14:37.560Z,90.19
2018-03-06T22:17:05.856Z,90.08
2018-03-06T22:19:34.178Z,90.02
2018-03-06T22:22:01.689Z,89.96
2018-03-06T22:24:30.381Z,90.00
2018-03-06T22:26:57.892Z,89.99
2018-03-06T22:29:25.396Z,90.04
2018-03-06T22:31:53.290Z,90.05
2018-03-06T22:34:20.855Z,90.06
2018-03-06T22:36:48.621Z,89.86
2018-03-06T22:39:17.653Z,89.86
2018-03-06T22:41:45.115Z,89.64
2018-03-06T22:44:12.697Z,89.65
2018-03-06T22:46:40.243Z,89.76
2018-03-06T22:49:07.751Z,89.88
2018-03-06T22:51:35.237Z,89.90
2018-03-06T22:54:02.736Z,89.94
2018-03-06T22:56:30.774Z,89.98
2018-03-06T22:58:58.288Z,89.95
2018-03-06T23:01:25.763Z,89.82
2018-03-06T23:03:54.252Z,89.67
2018-03-06T23:06:22.518Z,89.59
2018-03-06T23:08:50.393Z,89.51
2018-03-06T23:11:17.976Z,89.28
2018-03-06T23:13:45.485Z,89.11
2018-03-06T23:16:13.502Z,88.88
2018-03-06T23:18:41.072Z,88.79
2018-03-06T23:21:08.551Z,88.72
2018-03-06T23:23:36.029Z,88.48
2018-03-06T23:26:03.559Z,88.51
2018-03-06T23:28:31.306Z,88.40
2018-03-06T23:30:58.818Z,88.32
2018-03-06T23:33:26.405Z,88.31
2018-03-06T23:35:53.894Z,88.20
2018-03-06T23:38:21.406Z,88.12
2018-03-06T23:40:49.075Z,87.99
2018-03-06T23:43:16.613Z,87.93
2018-03-06T23:45:44.091Z,87.53
2018-03-06T23:48:11.584Z,87.58
2018-03-06T23:50:41.140Z,87.63
2018-03-06T23:53:08.659Z,87.81
2018-03-06T23:55:36.099Z,87.92
2018-03-06T23:58:03.580Z,88.12
